Weather at Casa Grande Municipal Airport

Public forecast

Using degrees Fahrenheit for public forecast. Weather courtesy of forecast.io.

Current aviation weather report (METAR) for Casa Grande Municipal Airport

Retrieved 2021/08/05 12:56 UTC (2 hours ago):

KCGZ 051256Z AUTO 16005KT 10SM CLR 31/18 A2992 RMK AO2 SLP110 T03060183

Closest aviation forecast (TAF) to Casa Grande Municipal Airport

Closest forecast is Phoenix-Mesa-Gateway Airport, 21.9 nm (40.6 km) NNE. Retrieved 2021/08/05 12:36 UTC (2 hours ago):

TAF KIWA 051135Z 0512/0612 15012G18KT P6SM FEW170 FM051300 15007KT P6SM FEW170 FM052200 25006KT P6SM SKC FM060300 30005KT P6SM FEW150 FEW250 FM060800 08005KT P6SM FEW150 FEW250